KR-0455 weather

Dayeong-dong Prjio Apartments Heliports
Busan, Busan Gwang'yeogsi, South Korea

Public forecast

Using degrees Celsius for public forecast. Weather courtesy of forecast.io.

Closest aviation weather report (METAR) to Dayeong-dong Prjio Apartments Heliports

Closest report is Gimhae International Airport, 8.4 nm (15.6 km) WNW. Retrieved 2020/07/05 09:00 UTC (49 minutes ago):

RKPK 050900Z 18009KT CAVOK 24/16 Q1003 RMK CIG200 SLP036 8/018 9/042

Closest aviation forecast (TAF) to Dayeong-dong Prjio Apartments Heliports

Closest forecast is Gimhae International Airport, 8.4 nm (15.6 km) WNW. Retrieved 2020/07/05 06:00 UTC (4 hours ago):

TAF RKPK 050500Z 0506/0612 18006KT 9999 SCT030 BKN200 TN21/0520Z TX27/0605Z BECMG 0509/0510 06006KT